sensor_id;sensor_type;location;lat;lon;timestamp;pressure;altitude;pressure_sealevel;temperature;humidity
77288;BME280;66345;42.694;23.346;2023-04-16T00:00:21;94990.13;;;11.90;57.42
77288;BME280;66345;42.694;23.346;2023-04-16T00:02:47;94980.88;;;12.00;57.18
77288;BME280;66345;42.694;23.346;2023-04-16T00:05:13;94978.44;;;11.91;57.36
77288;BME280;66345;42.694;23.346;2023-04-16T00:07:39;94983.38;;;11.75;57.88
77288;BME280;66345;42.694;23.346;2023-04-16T00:10:06;94976.81;;;11.77;58.11
77288;BME280;66345;42.694;23.346;2023-04-16T00:12:31;94975.41;;;11.81;57.82
77288;BME280;66345;42.694;23.346;2023-04-16T00:14:57;94979.09;;;11.80;57.66
77288;BME280;66345;42.694;23.346;2023-04-16T00:17:23;94973.34;;;11.77;57.89
77288;BME280;66345;42.694;23.346;2023-04-16T00:19:48;94968.69;;;11.65;57.93
77288;BME280;66345;42.694;23.346;2023-04-16T00:22:13;94982.41;;;11.49;58.44
77288;BME280;66345;42.694;23.346;2023-04-16T00:24:39;94977.50;;;11.46;58.61
77288;BME280;66345;42.694;23.346;2023-04-16T00:27:05;94979.16;;;11.27;59.20
77288;BME280;66345;42.694;23.346;2023-04-16T00:29:30;94977.09;;;11.36;58.95
77288;BME280;66345;42.694;23.346;2023-04-16T00:31:56;94979.97;;;11.21;59.75
77288;BME280;66345;42.694;23.346;2023-04-16T00:34:21;94981.19;;;11.25;59.69
77288;BME280;66345;42.694;23.346;2023-04-16T00:36:47;94976.09;;;11.17;59.56
77288;BME280;66345;42.694;23.346;2023-04-16T00:39:12;94974.88;;;11.26;59.41
77288;BME280;66345;42.694;23.346;2023-04-16T00:41:38;94973.25;;;11.19;59.59
77288;BME280;66345;42.694;23.346;2023-04-16T00:44:03;94975.91;;;11.12;60.04
77288;BME280;66345;42.694;23.346;2023-04-16T00:46:29;94976.91;;;11.04;59.64
77288;BME280;66345;42.694;23.346;2023-04-16T00:48:54;94973.66;;;10.89;59.57
77288;BME280;66345;42.694;23.346;2023-04-16T00:51:21;94976.66;;;10.73;60.19
77288;BME280;66345;42.694;23.346;2023-04-16T00:53:46;94970.34;;;10.61;60.18
77288;BME280;66345;42.694;23.346;2023-04-16T00:56:12;94979.53;;;10.58;59.94
77288;BME280;66345;42.694;23.346;2023-04-16T00:58:38;94974.41;;;10.56;59.63
77288;BME280;66345;42.694;23.346;2023-04-16T01:01:04;94971.56;;;10.65;58.52
77288;BME280;66345;42.694;23.346;2023-04-16T01:03:43;94977.28;;;10.68;58.30
77288;BME280;66345;42.694;23.346;2023-04-16T01:06:10;94975.44;;;10.69;57.81
77288;BME280;66345;42.694;23.346;2023-04-16T01:08:36;94972.78;;;10.69;55.34
77288;BME280;66345;42.694;23.346;2023-04-16T01:11:01;94968.31;;;10.69;54.53
77288;BME280;66345;42.694;23.346;2023-04-16T01:13:29;94976.47;;;10.61;52.97
77288;BME280;66345;42.694;23.346;2023-04-16T01:15:55;94972.38;;;10.59;51.87
77288;BME280;66345;42.694;23.346;2023-04-16T01:18:21;94974.41;;;10.56;51.08
77288;BME280;66345;42.694;23.346;2023-04-16T01:20:48;94976.03;;;10.57;50.86
77288;BME280;66345;42.694;23.346;2023-04-16T01:23:14;94970.94;;;10.56;50.17
77288;BME280;66345;42.694;23.346;2023-04-16T01:25:40;94969.25;;;10.35;50.94
77288;BME280;66345;42.694;23.346;2023-04-16T01:28:06;94976.56;;;10.26;51.73
77288;BME280;66345;42.694;23.346;2023-04-16T01:30:32;94980.19;;;10.19;53.06
77288;BME280;66345;42.694;23.346;2023-04-16T01:32:57;94964.25;;;10.06;53.21
77288;BME280;66345;42.694;23.346;2023-04-16T01:35:23;94969.72;;;10.04;52.58
77288;BME280;66345;42.694;23.346;2023-04-16T01:37:50;94969.09;;;10.02;52.03
77288;BME280;66345;42.694;23.346;2023-04-16T01:40:16;94962.09;;;10.22;51.78
77288;BME280;66345;42.694;23.346;2023-04-16T01:42:41;94966.28;;;10.10;52.91
77288;BME280;66345;42.694;23.346;2023-04-16T01:45:07;94966.44;;;9.95;53.17
77288;BME280;66345;42.694;23.346;2023-04-16T01:47:33;94968.94;;;9.62;54.10
77288;BME280;66345;42.694;23.346;2023-04-16T01:49:59;94965.41;;;9.55;54.77
77288;BME280;66345;42.694;23.346;2023-04-16T01:52:24;94963.00;;;9.60;53.38
77288;BME280;66345;42.694;23.346;2023-04-16T01:54:50;94956.59;;;9.83;53.19
77288;BME280;66345;42.694;23.346;2023-04-16T01:57:15;94961.78;;;10.04;52.76
77288;BME280;66345;42.694;23.346;2023-04-16T01:59:41;94952.25;;;10.16;52.15
77288;BME280;66345;42.694;23.346;2023-04-16T02:02:11;94958.59;;;10.22;51.54
77288;BME280;66345;42.694;23.346;2023-04-16T02:04:41;94953.94;;;10.24;50.70
77288;BME280;66345;42.694;23.346;2023-04-16T02:07:09;94955.75;;;10.23;51.04
77288;BME280;66345;42.694;23.346;2023-04-16T02:09:37;94954.69;;;10.18;51.76
77288;BME280;66345;42.694;23.346;2023-04-16T02:12:05;94953.50;;;10.27;51.63
77288;BME280;66345;42.694;23.346;2023-04-16T02:14:31;94954.88;;;10.10;52.09
77288;BME280;66345;42.694;23.346;2023-04-16T02:16:57;94953.25;;;10.15;52.45
77288;BME280;66345;42.694;23.346;2023-04-16T02:19:22;94952.69;;;10.26;51.96
77288;BME280;66345;42.694;23.346;2023-04-16T02:21:50;94953.75;;;10.39;52.78
77288;BME280;66345;42.694;23.346;2023-04-16T02:24:15;94953.56;;;10.40;52.58
77288;BME280;66345;42.694;23.346;2023-04-16T02:26:41;94950.00;;;10.20;54.85
77288;BME280;66345;42.694;23.346;2023-04-16T02:29:06;94944.63;;;10.00;55.06
77288;BME280;66345;42.694;23.346;2023-04-16T02:31:32;94950.53;;;9.95;54.76
77288;BME280;66345;42.694;23.346;2023-04-16T02:33:57;94949.13;;;9.99;54.63
77288;BME280;66345;42.694;23.346;2023-04-16T02:36:23;94948.88;;;9.88;54.99
77288;BME280;66345;42.694;23.346;2023-04-16T02:38:48;94949.16;;;10.06;54.44
77288;BME280;66345;42.694;23.346;2023-04-16T02:41:14;94940.88;;;10.22;54.36
77288;BME280;66345;42.694;23.346;2023-04-16T02:43:39;94948.56;;;10.17;54.51
77288;BME280;66345;42.694;23.346;2023-04-16T02:46:05;94944.34;;;10.30;54.51
77288;BME280;66345;42.694;23.346;2023-04-16T02:48:30;94943.25;;;10.17;55.00
77288;BME280;66345;42.694;23.346;2023-04-16T02:50:55;94940.88;;;10.22;55.34
77288;BME280;66345;42.694;23.346;2023-04-16T02:53:21;94934.34;;;10.32;55.60
77288;BME280;66345;42.694;23.346;2023-04-16T02:55:53;94939.38;;;10.13;55.99
77288;BME280;66345;42.694;23.346;2023-04-16T02:58:20;94938.22;;;10.22;55.78
77288;BME280;66345;42.694;23.346;2023-04-16T03:00:46;94937.53;;;10.07;56.22
77288;BME280;66345;42.694;23.346;2023-04-16T03:03:12;94939.16;;;10.08;55.83
77288;BME280;66345;42.694;23.346;2023-04-16T03:05:38;94923.41;;;9.93;56.90
77288;BME280;66345;42.694;23.346;2023-04-16T03:08:03;94931.63;;;10.12;56.37
77288;BME280;66345;42.694;23.346;2023-04-16T03:10:29;94930.16;;;10.02;56.41
77288;BME280;66345;42.694;23.346;2023-04-16T03:12:55;94930.53;;;9.93;57.01
77288;BME280;66345;42.694;23.346;2023-04-16T03:15:20;94944.47;;;10.08;56.93
77288;BME280;66345;42.694;23.346;2023-04-16T03:17:46;94942.03;;;10.13;56.40
77288;BME280;66345;42.694;23.346;2023-04-16T03:20:11;94950.03;;;10.26;56.13
77288;BME280;66345;42.694;23.346;2023-04-16T03:22:39;94943.94;;;10.33;56.41
77288;BME280;66345;42.694;23.346;2023-04-16T03:25:06;94946.59;;;10.33;56.58
77288;BME280;66345;42.694;23.346;2023-04-16T03:27:32;94952.25;;;10.16;57.03
77288;BME280;66345;42.694;23.346;2023-04-16T03:29:58;94947.31;;;10.07;56.93
77288;BME280;66345;42.694;23.346;2023-04-16T03:32:23;94946.38;;;10.27;56.35
77288;BME280;66345;42.694;23.346;2023-04-16T03:34:48;94940.41;;;10.19;56.30
77288;BME280;66345;42.694;23.346;2023-04-16T03:37:14;94947.94;;;10.09;55.75
77288;BME280;66345;42.694;23.346;2023-04-16T03:39:39;94946.94;;;10.16;55.34
77288;BME280;66345;42.694;23.346;2023-04-16T03:42:06;94959.69;;;9.93;55.38
77288;BME280;66345;42.694;23.346;2023-04-16T03:44:32;94960.19;;;9.68;55.88
77288;BME280;66345;42.694;23.346;2023-04-16T03:46:57;94958.13;;;9.64;55.49
77288;BME280;66345;42.694;23.346;2023-04-16T03:49:23;94959.88;;;9.50;55.03
77288;BME280;66345;42.694;23.346;2023-04-16T03:51:48;94958.69;;;9.53;54.51
77288;BME280;66345;42.694;23.346;2023-04-16T03:54:14;94964.97;;;9.45;54.43
77288;BME280;66345;42.694;23.346;2023-04-16T03:56:40;94962.53;;;9.50;54.40
77288;BME280;66345;42.694;23.346;2023-04-16T03:59:06;94960.91;;;9.49;54.67
77288;BME280;66345;42.694;23.346;2023-04-16T04:01:31;94967.09;;;9.63;54.04
77288;BME280;66345;42.694;23.346;2023-04-16T04:03:57;94962.59;;;9.63;54.02
77288;BME280;66345;42.694;23.346;2023-04-16T04:06:22;94968.34;;;9.73;53.71
77288;BME280;66345;42.694;23.346;2023-04-16T04:08:47;94967.81;;;9.85;52.91
77288;BME280;66345;42.694;23.346;2023-04-16T04:11:13;94970.50;;;9.91;53.13
77288;BME280;66345;42.694;23.346;2023-04-16T04:13:38;94977.38;;;9.79;53.64
77288;BME280;66345;42.694;23.346;2023-04-16T04:16:04;94976.66;;;9.98;52.81
77288;BME280;66345;42.694;23.346;2023-04-16T04:18:30;94976.28;;;10.08;52.43
77288;BME280;66345;42.694;23.346;2023-04-16T04:20:56;94979.16;;;10.20;52.28
77288;BME280;66345;42.694;23.346;2023-04-16T04:23:22;94984.28;;;10.21;52.39
77288;BME280;66345;42.694;23.346;2023-04-16T04:25:47;94980.22;;;10.25;52.41
77288;BME280;66345;42.694;23.346;2023-04-16T04:28:12;94982.94;;;10.39;51.63
77288;BME280;66345;42.694;23.346;2023-04-16T04:30:38;94987.63;;;10.37;51.59
77288;BME280;66345;42.694;23.346;2023-04-16T04:33:03;94992.69;;;10.32;51.67
77288;BME280;66345;42.694;23.346;2023-04-16T04:35:30;94985.56;;;10.32;51.51
77288;BME280;66345;42.694;23.346;2023-04-16T04:37:56;94993.06;;;10.22;51.71
77288;BME280;66345;42.694;23.346;2023-04-16T04:40:21;94996.91;;;10.19;51.76
77288;BME280;66345;42.694;23.346;2023-04-16T04:42:46;94994.25;;;10.19;51.37
77288;BME280;66345;42.694;23.346;2023-04-16T04:45:12;94991.47;;;10.34;51.42
77288;BME280;66345;42.694;23.346;2023-04-16T04:47:37;95000.06;;;10.36;51.63
77288;BME280;66345;42.694;23.346;2023-04-16T04:50:03;95005.31;;;10.23;51.43
77288;BME280;66345;42.694;23.346;2023-04-16T04:52:29;94996.75;;;10.27;51.53
77288;BME280;66345;42.694;23.346;2023-04-16T04:54:54;94997.59;;;10.35;51.75
77288;BME280;66345;42.694;23.346;2023-04-16T04:57:20;94996.38;;;10.31;51.95
77288;BME280;66345;42.694;23.346;2023-04-16T04:59:45;95002.53;;;10.38;51.29
77288;BME280;66345;42.694;23.346;2023-04-16T05:02:11;94998.25;;;10.50;51.19
77288;BME280;66345;42.694;23.346;2023-04-16T05:04:36;95004.41;;;10.50;51.05
77288;BME280;66345;42.694;23.346;2023-04-16T05:07:02;94999.31;;;10.62;50.76
77288;BME280;66345;42.694;23.346;2023-04-16T05:09:27;94999.66;;;10.39;51.47
77288;BME280;66345;42.694;23.346;2023-04-16T05:11:53;95005.66;;;10.61;51.29
77288;BME280;66345;42.694;23.346;2023-04-16T05:14:18;94993.59;;;10.72;51.00
77288;BME280;66345;42.694;23.346;2023-04-16T05:16:44;94995.06;;;10.88;50.40
77288;BME280;66345;42.694;23.346;2023-04-16T05:19:09;94993.03;;;10.83;50.00
77288;BME280;66345;42.694;23.346;2023-04-16T05:21:35;94986.09;;;10.95;50.37
77288;BME280;66345;42.694;23.346;2023-04-16T05:24:00;94995.66;;;10.76;50.71
77288;BME280;66345;42.694;23.346;2023-04-16T05:26:25;94988.75;;;10.89;50.28
77288;BME280;66345;42.694;23.346;2023-04-16T05:28:51;94994.88;;;11.09;50.22
77288;BME280;66345;42.694;23.346;2023-04-16T05:31:18;94990.78;;;11.00;49.82
77288;BME280;66345;42.694;23.346;2023-04-16T05:33:43;94996.28;;;10.85;50.74
77288;BME280;66345;42.694;23.346;2023-04-16T05:36:08;94992.66;;;11.13;50.51
77288;BME280;66345;42.694;23.346;2023-04-16T05:38:34;94996.72;;;11.42;49.78
77288;BME280;66345;42.694;23.346;2023-04-16T05:40:59;95007.97;;;11.44;49.19
77288;BME280;66345;42.694;23.346;2023-04-16T05:43:25;94995.88;;;11.48;48.79
77288;BME280;66345;42.694;23.346;2023-04-16T05:45:50;94986.69;;;11.50;48.77
77288;BME280;66345;42.694;23.346;2023-04-16T05:48:16;94994.69;;;11.30;49.77
77288;BME280;66345;42.694;23.346;2023-04-16T05:50:41;94996.91;;;11.40;49.31
77288;BME280;66345;42.694;23.346;2023-04-16T05:53:08;94996.31;;;11.25;49.63
77288;BME280;66345;42.694;23.346;2023-04-16T05:55:34;94990.00;;;11.19;50.60
77288;BME280;66345;42.694;23.346;2023-04-16T05:58:01;95001.63;;;11.45;49.19
77288;BME280;66345;42.694;23.346;2023-04-16T06:00:34;95007.75;;;11.45;49.29
77288;BME280;66345;42.694;23.346;2023-04-16T06:03:00;95001.63;;;11.45;49.59
77288;BME280;66345;42.694;23.346;2023-04-16T06:05:26;95002.03;;;11.42;49.85
77288;BME280;66345;42.694;23.346;2023-04-16T06:07:51;95001.78;;;11.70;49.11
77288;BME280;66345;42.694;23.346;2023-04-16T06:10:17;94991.28;;;12.08;47.95
77288;BME280;66345;42.694;23.346;2023-04-16T06:12:42;94989.38;;;12.28;46.95
77288;BME280;66345;42.694;23.346;2023-04-16T06:15:08;94978.81;;;12.46;46.58
77288;BME280;66345;42.694;23.346;2023-04-16T06:17:34;94991.91;;;12.55;46.53
77288;BME280;66345;42.694;23.346;2023-04-16T06:19:59;94995.19;;;12.88;45.80
77288;BME280;66345;42.694;23.346;2023-04-16T06:22:25;94987.72;;;13.28;44.79
77288;BME280;66345;42.694;23.346;2023-04-16T06:24:51;94982.31;;;13.85;43.89
77288;BME280;66345;42.694;23.346;2023-04-16T06:27:17;94978.91;;;14.14;43.66
77288;BME280;66345;42.694;23.346;2023-04-16T06:29:42;94979.03;;;14.38;42.68
77288;BME280;66345;42.694;23.346;2023-04-16T06:32:08;94981.13;;;14.36;42.96
77288;BME280;66345;42.694;23.346;2023-04-16T06:34:34;94973.81;;;14.43;42.64
77288;BME280;66345;42.694;23.346;2023-04-16T06:36:59;94977.31;;;14.43;42.74
77288;BME280;66345;42.694;23.346;2023-04-16T06:39:25;94981.84;;;14.61;42.71
77288;BME280;66345;42.694;23.346;2023-04-16T06:41:50;94980.81;;;14.26;43.60
77288;BME280;66345;42.694;23.346;2023-04-16T06:44:16;94971.06;;;15.10;42.11
77288;BME280;66345;42.694;23.346;2023-04-16T06:46:41;94968.91;;;16.00;40.75
77288;BME280;66345;42.694;23.346;2023-04-16T06:49:06;94974.09;;;16.30;39.87
77288;BME280;66345;42.694;23.346;2023-04-16T06:51:32;94981.50;;;15.76;41.70
77288;BME280;66345;42.694;23.346;2023-04-16T06:53:57;94968.81;;;15.84;41.39
77288;BME280;66345;42.694;23.346;2023-04-16T06:56:23;94985.22;;;15.10;43.28
77288;BME280;66345;42.694;23.346;2023-04-16T06:58:49;94974.00;;;15.20;43.55
77288;BME280;66345;42.694;23.346;2023-04-16T07:01:15;94970.22;;;16.38;41.26
77288;BME280;66345;42.694;23.346;2023-04-16T07:03:41;94966.25;;;17.26;39.19
77288;BME280;66345;42.694;23.346;2023-04-16T07:06:06;94968.41;;;16.96;39.31
77288;BME280;66345;42.694;23.346;2023-04-16T07:08:32;94964.22;;;15.25;43.32
77288;BME280;66345;42.694;23.346;2023-04-16T07:10:57;94964.69;;;16.56;40.58
77288;BME280;66345;42.694;23.346;2023-04-16T07:13:23;94966.25;;;16.81;39.99
77288;BME280;66345;42.694;23.346;2023-04-16T07:15:49;94980.41;;;16.13;41.42
77288;BME280;66345;42.694;23.346;2023-04-16T07:18:14;94972.94;;;15.21;43.46
77288;BME280;66345;42.694;23.346;2023-04-16T07:20:40;94984.00;;;14.53;45.57
77288;BME280;66345;42.694;23.346;2023-04-16T07:23:06;94982.66;;;14.43;46.31
77288;BME280;66345;42.694;23.346;2023-04-16T07:25:31;94970.53;;;16.13;41.95
77288;BME280;66345;42.694;23.346;2023-04-16T07:27:57;94973.09;;;16.08;42.67
77288;BME280;66345;42.694;23.346;2023-04-16T07:30:22;94971.75;;;16.74;41.12
77288;BME280;66345;42.694;23.346;2023-04-16T07:32:48;94978.91;;;15.93;42.29
77288;BME280;66345;42.694;23.346;2023-04-16T07:35:13;94982.44;;;15.82;42.56
77288;BME280;66345;42.694;23.346;2023-04-16T07:37:38;94964.16;;;16.83;40.86
77288;BME280;66345;42.694;23.346;2023-04-16T07:40:04;94967.91;;;16.99;39.96
77288;BME280;66345;42.694;23.346;2023-04-16T07:42:30;94963.13;;;17.01;39.67
77288;BME280;66345;42.694;23.346;2023-04-16T07:44:55;94974.22;;;16.64;40.57
77288;BME280;66345;42.694;23.346;2023-04-16T07:47:21;94971.00;;;16.50;40.30
77288;BME280;66345;42.694;23.346;2023-04-16T07:49:50;94970.94;;;16.33;41.00
77288;BME280;66345;42.694;23.346;2023-04-16T07:52:16;94961.94;;;18.80;36.50
77288;BME280;66345;42.694;23.346;2023-04-16T07:54:41;94955.78;;;19.11;35.61
77288;BME280;66345;42.694;23.346;2023-04-16T07:57:07;94963.06;;;18.84;35.86
77288;BME280;66345;42.694;23.346;2023-04-16T07:59:32;94967.63;;;17.45;38.76
77288;BME280;66345;42.694;23.346;2023-04-16T08:01:58;94968.41;;;16.15;42.23
77288;BME280;66345;42.694;23.346;2023-04-16T08:04:23;94966.16;;;17.21;40.08
77288;BME280;66345;42.694;23.346;2023-04-16T08:06:49;94968.91;;;17.60;39.75
77288;BME280;66345;42.694;23.346;2023-04-16T08:09:15;94957.16;;;17.61;39.38
77288;BME280;66345;42.694;23.346;2023-04-16T08:11:41;94966.19;;;17.71;38.40
77288;BME280;66345;42.694;23.346;2023-04-16T08:14:07;94955.97;;;19.59;36.18
77288;BME280;66345;42.694;23.346;2023-04-16T08:16:32;94932.66;;;22.77;30.37
77288;BME280;66345;42.694;23.346;2023-04-16T08:18:58;94940.00;;;25.08;26.49
77288;BME280;66345;42.694;23.346;2023-04-16T08:21:25;94949.25;;;25.26;26.04
77288;BME280;66345;42.694;23.346;2023-04-16T08:23:52;94952.16;;;23.57;27.92
77288;BME280;66345;42.694;23.346;2023-04-16T08:26:17;94947.06;;;22.62;29.71
77288;BME280;66345;42.694;23.346;2023-04-16T08:28:43;94938.44;;;25.78;24.75
77288;BME280;66345;42.694;23.346;2023-04-16T08:31:08;94939.03;;;26.76;24.07
77288;BME280;66345;42.694;23.346;2023-04-16T08:33:34;94926.00;;;26.87;23.81
77288;BME280;66345;42.694;23.346;2023-04-16T08:36:00;94938.97;;;23.11;27.72
77288;BME280;66345;42.694;23.346;2023-04-16T08:38:25;94942.94;;;21.95;30.10
77288;BME280;66345;42.694;23.346;2023-04-16T08:40:51;94936.97;;;21.98;30.42
77288;BME280;66345;42.694;23.346;2023-04-16T08:43:20;94934.19;;;20.65;32.46
77288;BME280;66345;42.694;23.346;2023-04-16T08:45:48;94925.38;;;23.56;28.01
77288;BME280;66345;42.694;23.346;2023-04-16T08:48:13;94927.44;;;23.74;27.57
77288;BME280;66345;42.694;23.346;2023-04-16T08:50:40;94929.88;;;23.99;27.54
77288;BME280;66345;42.694;23.346;2023-04-16T08:53:08;94920.97;;;24.47;26.39
77288;BME280;66345;42.694;23.346;2023-04-16T08:55:47;94912.97;;;25.36;25.33
77288;BME280;66345;42.694;23.346;2023-04-16T09:01:02;94924.13;;;23.04;28.33
77288;BME280;66345;42.694;23.346;2023-04-16T09:03:30;94920.59;;;24.29;26.65
77288;BME280;66345;42.694;23.346;2023-04-16T09:05:56;94916.19;;;24.39;26.26
77288;BME280;66345;42.694;23.346;2023-04-16T09:08:24;94915.41;;;25.18;25.34
77288;BME280;66345;42.694;23.346;2023-04-16T09:10:51;94908.22;;;25.09;25.65
77288;BME280;66345;42.694;23.346;2023-04-16T09:13:17;94909.34;;;24.65;26.11
77288;BME280;66345;42.694;23.346;2023-04-16T09:15:45;94909.81;;;24.00;27.22
77288;BME280;66345;42.694;23.346;2023-04-16T09:18:11;94910.38;;;24.69;26.26
77288;BME280;66345;42.694;23.346;2023-04-16T09:20:38;94907.66;;;25.63;24.93
77288;BME280;66345;42.694;23.346;2023-04-16T09:23:03;94906.63;;;23.93;26.86
77288;BME280;66345;42.694;23.346;2023-04-16T09:25:32;94906.69;;;22.76;28.59
77288;BME280;66345;42.694;23.346;2023-04-16T09:28:01;94906.06;;;22.39;29.71
77288;BME280;66345;42.694;23.346;2023-04-16T09:30:27;94904.97;;;22.46;29.23
77288;BME280;66345;42.694;23.346;2023-04-16T09:33:18;94911.63;;;23.47;27.80
77288;BME280;66345;42.694;23.346;2023-04-16T09:35:52;94901.34;;;25.49;25.00
77288;BME280;66345;42.694;23.346;2023-04-16T09:38:19;94904.31;;;25.34;25.12
77288;BME280;66345;42.694;23.346;2023-04-16T09:40:45;94899.97;;;25.98;24.17
77288;BME280;66345;42.694;23.346;2023-04-16T09:43:16;94887.91;;;27.90;22.00
77288;BME280;66345;42.694;23.346;2023-04-16T09:45:48;94890.44;;;26.83;23.01
77288;BME280;66345;42.694;23.346;2023-04-16T09:48:15;94886.50;;;27.70;21.62
77288;BME280;66345;42.694;23.346;2023-04-16T09:50:49;94904.63;;;24.04;25.45
77288;BME280;66345;42.694;23.346;2023-04-16T09:53:23;94893.94;;;25.68;24.62
77288;BME280;66345;42.694;23.346;2023-04-16T09:55:49;94878.81;;;26.91;22.71
77288;BME280;66345;42.694;23.346;2023-04-16T09:58:18;94879.50;;;25.22;25.07
77288;BME280;66345;42.694;23.346;2023-04-16T10:00:44;94895.34;;;22.04;29.28
77288;BME280;66345;42.694;23.346;2023-04-16T10:03:10;94885.16;;;21.14;30.91
77288;BME280;66345;42.694;23.346;2023-04-16T10:05:36;94880.88;;;21.44;30.60
77288;BME280;66345;42.694;23.346;2023-04-16T10:08:02;94875.59;;;22.19;29.72
77288;BME280;66345;42.694;23.346;2023-04-16T10:10:28;94881.13;;;21.57;30.81
77288;BME280;66345;42.694;23.346;2023-04-16T10:12:54;94876.53;;;21.12;31.30
77288;BME280;66345;42.694;23.346;2023-04-16T10:15:20;94875.00;;;20.28;32.71
77288;BME280;66345;42.694;23.346;2023-04-16T10:17:46;94861.66;;;21.60;31.25
77288;BME280;66345;42.694;23.346;2023-04-16T10:20:13;94872.22;;;21.21;31.21
77288;BME280;66345;42.694;23.346;2023-04-16T10:22:39;94863.19;;;22.12;29.59
77288;BME280;66345;42.694;23.346;2023-04-16T10:25:06;94861.50;;;22.22;29.57
77288;BME280;66345;42.694;23.346;2023-04-16T10:27:33;94865.50;;;22.39;29.41
77288;BME280;66345;42.694;23.346;2023-04-16T10:29:59;94862.22;;;21.22;31.34
77288;BME280;66345;42.694;23.346;2023-04-16T10:32:25;94863.75;;;20.41;32.73
77288;BME280;66345;42.694;23.346;2023-04-16T10:34:54;94856.84;;;21.12;31.78
77288;BME280;66345;42.694;23.346;2023-04-16T10:37:28;94846.84;;;20.76;32.21
77288;BME280;66345;42.694;23.346;2023-04-16T10:39:55;94845.69;;;20.47;33.03
77288;BME280;66345;42.694;23.346;2023-04-16T10:42:20;94844.44;;;21.36;31.20
77288;BME280;66345;42.694;23.346;2023-04-16T10:44:46;94847.84;;;21.93;29.90
77288;BME280;66345;42.694;23.346;2023-04-16T10:47:12;94851.13;;;21.74;30.74
77288;BME280;66345;42.694;23.346;2023-04-16T10:49:38;94847.88;;;21.77;30.56
77288;BME280;66345;42.694;23.346;2023-04-16T10:52:12;94846.03;;;21.06;31.34
77288;BME280;66345;42.694;23.346;2023-04-16T10:54:38;94838.47;;;21.44;30.93
77288;BME280;66345;42.694;23.346;2023-04-16T10:57:07;94835.50;;;21.56;28.91
77288;BME280;66345;42.694;23.346;2023-04-16T10:59:34;94834.97;;;21.23;30.24
77288;BME280;66345;42.694;23.346;2023-04-16T11:02:05;94834.44;;;21.42;29.20
77288;BME280;66345;42.694;23.346;2023-04-16T11:04:38;94829.28;;;21.60;29.94
77288;BME280;66345;42.694;23.346;2023-04-16T11:10:04;94839.25;;;20.53;31.09
77288;BME280;66345;42.694;23.346;2023-04-16T11:18:02;94822.81;;;20.49;31.29
77288;BME280;66345;42.694;23.346;2023-04-16T11:20:28;94826.19;;;20.14;31.75
77288;BME280;66345;42.694;23.346;2023-04-16T11:22:55;94822.34;;;19.90;32.60
77288;BME280;66345;42.694;23.346;2023-04-16T11:25:21;94825.06;;;19.95;32.83
77288;BME280;66345;42.694;23.346;2023-04-16T11:27:47;94803.88;;;20.29;31.81
77288;BME280;66345;42.694;23.346;2023-04-16T11:30:13;94803.59;;;20.20;32.49
77288;BME280;66345;42.694;23.346;2023-04-16T11:32:39;94805.50;;;20.30;32.15
77288;BME280;66345;42.694;23.346;2023-04-16T11:35:15;94804.13;;;20.33;32.02
77288;BME280;66345;42.694;23.346;2023-04-16T11:37:41;94794.53;;;20.57;31.66
77288;BME280;66345;42.694;23.346;2023-04-16T11:40:08;94789.41;;;19.67;33.10
77288;BME280;66345;42.694;23.346;2023-04-16T11:42:37;94799.97;;;19.42;33.59
77288;BME280;66345;42.694;23.346;2023-04-16T11:45:07;94801.81;;;19.31;33.90
77288;BME280;66345;42.694;23.346;2023-04-16T11:47:45;94784.69;;;20.15;32.49
77288;BME280;66345;42.694;23.346;2023-04-16T11:50:19;94789.50;;;18.98;34.01
77288;BME280;66345;42.694;23.346;2023-04-16T11:52:46;94781.28;;;19.15;33.99
77288;BME280;66345;42.694;23.346;2023-04-16T11:55:11;94786.94;;;19.19;34.76
77288;BME280;66345;42.694;23.346;2023-04-16T11:57:37;94770.06;;;19.86;33.58
77288;BME280;66345;42.694;23.346;2023-04-16T12:00:03;94771.59;;;20.55;31.97
77288;BME280;66345;42.694;23.346;2023-04-16T12:02:48;94761.63;;;20.91;31.29
77288;BME280;66345;42.694;23.346;2023-04-16T12:05:31;94763.78;;;20.48;32.03
77288;BME280;66345;42.694;23.346;2023-04-16T12:08:00;94761.03;;;20.28;32.18
77288;BME280;66345;42.694;23.346;2023-04-16T12:10:27;94752.44;;;20.61;31.60
77288;BME280;66345;42.694;23.346;2023-04-16T12:12:52;94752.47;;;20.82;31.85
77288;BME280;66345;42.694;23.346;2023-04-16T12:15:18;94750.84;;;20.81;32.10
77288;BME280;66345;42.694;23.346;2023-04-16T12:17:43;94730.03;;;21.17;31.60
77288;BME280;66345;42.694;23.346;2023-04-16T12:20:13;94737.31;;;21.06;31.75
77288;BME280;66345;42.694;23.346;2023-04-16T12:22:46;94734.63;;;21.16;31.21
77288;BME280;66345;42.694;23.346;2023-04-16T12:25:14;94729.19;;;21.21;31.68
77288;BME280;66345;42.694;23.346;2023-04-16T12:30:16;94731.44;;;20.63;31.77
77288;BME280;66345;42.694;23.346;2023-04-16T12:32:43;94730.84;;;21.07;32.05
77288;BME280;66345;42.694;23.346;2023-04-16T12:35:10;94727.84;;;21.19;31.39
77288;BME280;66345;42.694;23.346;2023-04-16T12:37:36;94728.19;;;20.46;32.76
77288;BME280;66345;42.694;23.346;2023-04-16T12:40:02;94725.44;;;20.10;33.18
77288;BME280;66345;42.694;23.346;2023-04-16T12:42:29;94719.06;;;19.54;34.29
77288;BME280;66345;42.694;23.346;2023-04-16T12:45:00;94723.97;;;19.72;33.84
77288;BME280;66345;42.694;23.346;2023-04-16T12:47:26;94724.75;;;19.57;34.28
77288;BME280;66345;42.694;23.346;2023-04-16T12:49:51;94720.38;;;19.46;34.25
77288;BME280;66345;42.694;23.346;2023-04-16T12:52:17;94713.22;;;19.67;34.41
77288;BME280;66345;42.694;23.346;2023-04-16T12:54:42;94714.59;;;19.75;34.78
77288;BME280;66345;42.694;23.346;2023-04-16T12:57:07;94719.25;;;19.37;34.78
77288;BME280;66345;42.694;23.346;2023-04-16T12:59:33;94718.00;;;19.02;35.48